Terminal Aerodrome Forecast
Issued by NWS Cleveland, OH

Home | Current Version | Previous Version | Graphics & Text | Print | Product List | Glossary On
Versions: 1 2 3 4 5 6 7 8 9 10 11 12 13 14 15 16 17 18 19 20
000
FTUS41 KCLE 191915 AAA
TAFMFD
TAF AMD
KMFD 191915Z 1919/2018 16006KT P6SM OVC010
     FM192000 14006KT P6SM BKN015
     FM192300 12007KT P6SM OVC100
     FM200900 12008KT 5SM -RA OVC010
     FM201100 16008KT 4SM -RA BR OVC007
      TEMPO 2011/2015 2SM -RA BR OVC003=

USA.gov is the U.S. government's official web portal to all federal, state and local government web resources and services.